sensor_id;sensor_type;location;lat;lon;timestamp;temperature;humidity
20833;DHT22;56075;51.264;7.150;2023-03-13T00:02:17;10.20;99.90
20833;DHT22;56075;51.264;7.150;2023-03-13T00:04:48;10.50;99.90
20833;DHT22;56075;51.264;7.150;2023-03-13T00:07:19;10.30;99.90
20833;DHT22;56075;51.264;7.150;2023-03-13T00:09:50;10.20;99.90
20833;DHT22;56075;51.264;7.150;2023-03-13T00:12:22;10.10;99.90
20833;DHT22;56075;51.264;7.150;2023-03-13T00:14:53;11.40;99.90
20833;DHT22;56075;51.264;7.150;2023-03-13T00:17:24;11.70;99.90
20833;DHT22;56075;51.264;7.150;2023-03-13T00:19:55;11.50;99.90
20833;DHT22;56075;51.264;7.150;2023-03-13T00:22:26;10.20;99.90
20833;DHT22;56075;51.264;7.150;2023-03-13T00:24:57;12.20;99.90
20833;DHT22;56075;51.264;7.150;2023-03-13T00:27:32;10.30;99.90
20833;DHT22;56075;51.264;7.150;2023-03-13T00:30:05;10.10;99.90
20833;DHT22;56075;51.264;7.150;2023-03-13T00:32:40;10.20;99.90
20833;DHT22;56075;51.264;7.150;2023-03-13T00:35:12;10.20;99.90
20833;DHT22;56075;51.264;7.150;2023-03-13T00:37:43;10.30;99.90
20833;DHT22;56075;51.264;7.150;2023-03-13T00:40:14;10.30;99.90
20833;DHT22;56075;51.264;7.150;2023-03-13T00:42:46;10.50;99.90
20833;DHT22;56075;51.264;7.150;2023-03-13T00:45:17;10.30;99.90
20833;DHT22;56075;51.264;7.150;2023-03-13T00:47:48;10.20;99.90
20833;DHT22;56075;51.264;7.150;2023-03-13T00:50:19;10.40;99.90
20833;DHT22;56075;51.264;7.150;2023-03-13T00:52:51;10.50;99.90
20833;DHT22;56075;51.264;7.150;2023-03-13T00:55:22;10.30;99.90
20833;DHT22;56075;51.264;7.150;2023-03-13T00:57:53;10.20;99.90
20833;DHT22;56075;51.264;7.150;2023-03-13T01:00:24;11.40;99.90
20833;DHT22;56075;51.264;7.150;2023-03-13T01:02:56;10.40;99.90
20833;DHT22;56075;51.264;7.150;2023-03-13T01:05:27;10.20;99.90
20833;DHT22;56075;51.264;7.150;2023-03-13T01:07:58;10.20;99.90
20833;DHT22;56075;51.264;7.150;2023-03-13T01:10:29;10.40;99.90
20833;DHT22;56075;51.264;7.150;2023-03-13T01:13:01;10.20;99.90
20833;DHT22;56075;51.264;7.150;2023-03-13T01:15:35;10.10;99.90
20833;DHT22;56075;51.264;7.150;2023-03-13T01:18:06;10.00;99.90
20833;DHT22;56075;51.264;7.150;2023-03-13T01:20:37;9.90;99.90
20833;DHT22;56075;51.264;7.150;2023-03-13T01:23:10;10.90;99.90
20833;DHT22;56075;51.264;7.150;2023-03-13T01:25:41;9.80;99.90
20833;DHT22;56075;51.264;7.150;2023-03-13T01:28:13;9.70;99.90
20833;DHT22;56075;51.264;7.150;2023-03-13T01:30:44;9.40;99.90
20833;DHT22;56075;51.264;7.150;2023-03-13T01:33:15;9.50;99.90
20833;DHT22;56075;51.264;7.150;2023-03-13T01:35:47;9.60;99.90
20833;DHT22;56075;51.264;7.150;2023-03-13T01:38:18;9.60;99.90
20833;DHT22;56075;51.264;7.150;2023-03-13T01:40:49;9.60;99.90
20833;DHT22;56075;51.264;7.150;2023-03-13T01:43:29;9.40;99.90
20833;DHT22;56075;51.264;7.150;2023-03-13T01:46:17;9.40;99.90
20833;DHT22;56075;51.264;7.150;2023-03-13T01:49:32;9.50;99.90
20833;DHT22;56075;51.264;7.150;2023-03-13T01:52:15;9.50;99.90
20833;DHT22;56075;51.264;7.150;2023-03-13T01:55:03;9.40;99.90
20833;DHT22;56075;51.264;7.150;2023-03-13T01:57:42;9.30;99.90
20833;DHT22;56075;51.264;7.150;2023-03-13T02:00:22;9.40;99.90
20833;DHT22;56075;51.264;7.150;2023-03-13T02:02:56;9.40;99.90
20833;DHT22;56075;51.264;7.150;2023-03-13T02:05:30;9.40;99.90
20833;DHT22;56075;51.264;7.150;2023-03-13T02:08:02;9.30;99.90
20833;DHT22;56075;51.264;7.150;2023-03-13T02:10:42;10.90;99.90
20833;DHT22;56075;51.264;7.150;2023-03-13T02:13:14;9.30;99.90
20833;DHT22;56075;51.264;7.150;2023-03-13T02:15:47;9.20;99.90
20833;DHT22;56075;51.264;7.150;2023-03-13T02:18:20;9.10;99.90
20833;DHT22;56075;51.264;7.150;2023-03-13T02:20:53;9.40;99.90
20833;DHT22;56075;51.264;7.150;2023-03-13T02:23:41;9.30;99.90
20833;DHT22;56075;51.264;7.150;2023-03-13T02:33:52;9.30;99.90
20833;DHT22;56075;51.264;7.150;2023-03-13T02:36:24;9.20;99.90
20833;DHT22;56075;51.264;7.150;2023-03-13T02:39:00;9.30;99.90
20833;DHT22;56075;51.264;7.150;2023-03-13T02:41:34;9.30;99.90
20833;DHT22;56075;51.264;7.150;2023-03-13T02:44:05;9.40;99.90
20833;DHT22;56075;51.264;7.150;2023-03-13T02:46:48;9.20;99.90
20833;DHT22;56075;51.264;7.150;2023-03-13T02:49:27;9.30;99.90
20833;DHT22;56075;51.264;7.150;2023-03-13T02:52:10;11.60;99.90
20833;DHT22;56075;51.264;7.150;2023-03-13T02:54:49;9.20;99.90
20833;DHT22;56075;51.264;7.150;2023-03-13T02:57:21;9.30;99.90
20833;DHT22;56075;51.264;7.150;2023-03-13T02:59:52;9.40;99.90
20833;DHT22;56075;51.264;7.150;2023-03-13T03:02:24;9.30;99.90
20833;DHT22;56075;51.264;7.150;2023-03-13T03:04:55;9.30;99.90
20833;DHT22;56075;51.264;7.150;2023-03-13T03:07:26;9.30;99.90
20833;DHT22;56075;51.264;7.150;2023-03-13T03:09:57;9.40;99.90
20833;DHT22;56075;51.264;7.150;2023-03-13T03:12:28;9.30;99.90
20833;DHT22;56075;51.264;7.150;2023-03-13T03:14:59;9.40;99.90
20833;DHT22;56075;51.264;7.150;2023-03-13T03:17:31;9.40;99.90
20833;DHT22;56075;51.264;7.150;2023-03-13T03:20:03;9.40;99.90
20833;DHT22;56075;51.264;7.150;2023-03-13T03:22:38;9.40;99.90
20833;DHT22;56075;51.264;7.150;2023-03-13T03:25:10;9.30;99.90
20833;DHT22;56075;51.264;7.150;2023-03-13T03:27:41;11.20;99.90
20833;DHT22;56075;51.264;7.150;2023-03-13T03:30:13;9.80;99.90
20833;DHT22;56075;51.264;7.150;2023-03-13T03:32:45;9.40;99.90
20833;DHT22;56075;51.264;7.150;2023-03-13T03:35:16;9.60;99.90
20833;DHT22;56075;51.264;7.150;2023-03-13T03:37:47;9.60;99.90
20833;DHT22;56075;51.264;7.150;2023-03-13T03:40:18;9.50;99.90
20833;DHT22;56075;51.264;7.150;2023-03-13T03:42:51;9.70;99.90
20833;DHT22;56075;51.264;7.150;2023-03-13T03:45:22;9.60;99.90
20833;DHT22;56075;51.264;7.150;2023-03-13T03:47:54;11.10;99.90
20833;DHT22;56075;51.264;7.150;2023-03-13T03:50:26;9.70;99.90
20833;DHT22;56075;51.264;7.150;2023-03-13T03:53:02;9.50;99.90
20833;DHT22;56075;51.264;7.150;2023-03-13T03:55:34;9.70;99.90
20833;DHT22;56075;51.264;7.150;2023-03-13T03:58:05;9.80;99.90
20833;DHT22;56075;51.264;7.150;2023-03-13T04:00:56;10.00;99.90
20833;DHT22;56075;51.264;7.150;2023-03-13T04:03:28;9.90;99.90
20833;DHT22;56075;51.264;7.150;2023-03-13T04:05:59;9.90;99.90
20833;DHT22;56075;51.264;7.150;2023-03-13T04:08:30;9.80;99.90
20833;DHT22;56075;51.264;7.150;2023-03-13T04:11:02;9.90;99.90
20833;DHT22;56075;51.264;7.150;2023-03-13T04:13:37;9.90;99.90
20833;DHT22;56075;51.264;7.150;2023-03-13T04:16:09;9.70;99.90
20833;DHT22;56075;51.264;7.150;2023-03-13T04:18:41;9.70;99.90
20833;DHT22;56075;51.264;7.150;2023-03-13T04:21:12;9.80;99.90
20833;DHT22;56075;51.264;7.150;2023-03-13T04:23:54;9.90;99.90
20833;DHT22;56075;51.264;7.150;2023-03-13T04:26:25;9.80;99.90
20833;DHT22;56075;51.264;7.150;2023-03-13T04:28:59;9.90;99.90
20833;DHT22;56075;51.264;7.150;2023-03-13T04:31:59;10.00;99.90
20833;DHT22;56075;51.264;7.150;2023-03-13T04:34:53;9.90;99.90
20833;DHT22;56075;51.264;7.150;2023-03-13T04:37:39;9.80;99.90
20833;DHT22;56075;51.264;7.150;2023-03-13T04:40:48;10.10;99.90
20833;DHT22;56075;51.264;7.150;2023-03-13T04:43:45;9.80;99.90
20833;DHT22;56075;51.264;7.150;2023-03-13T04:46:43;10.10;99.90
20833;DHT22;56075;51.264;7.150;2023-03-13T04:49:17;10.00;99.90
20833;DHT22;56075;51.264;7.150;2023-03-13T04:51:57;10.20;99.90
20833;DHT22;56075;51.264;7.150;2023-03-13T04:54:55;10.10;99.90
20833;DHT22;56075;51.264;7.150;2023-03-13T04:57:47;10.10;99.90
20833;DHT22;56075;51.264;7.150;2023-03-13T05:00:39;10.10;99.90
20833;DHT22;56075;51.264;7.150;2023-03-13T05:03:28;10.20;99.90
20833;DHT22;56075;51.264;7.150;2023-03-13T05:06:16;10.10;99.90
20833;DHT22;56075;51.264;7.150;2023-03-13T05:09:06;11.20;99.90
20833;DHT22;56075;51.264;7.150;2023-03-13T05:11:55;10.30;99.90
20833;DHT22;56075;51.264;7.150;2023-03-13T05:14:34;10.30;99.90
20833;DHT22;56075;51.264;7.150;2023-03-13T05:17:16;10.50;99.90
20833;DHT22;56075;51.264;7.150;2023-03-13T05:20:17;10.40;99.90
20833;DHT22;56075;51.264;7.150;2023-03-13T05:23:11;10.50;99.90
20833;DHT22;56075;51.264;7.150;2023-03-13T05:26:05;10.60;99.90
20833;DHT22;56075;51.264;7.150;2023-03-13T05:28:47;10.80;99.90
20833;DHT22;56075;51.264;7.150;2023-03-13T05:31:38;10.70;99.90
20833;DHT22;56075;51.264;7.150;2023-03-13T05:34:18;10.80;99.90
20833;DHT22;56075;51.264;7.150;2023-03-13T05:37:10;10.70;99.90
20833;DHT22;56075;51.264;7.150;2023-03-13T05:40:06;10.80;99.90
20833;DHT22;56075;51.264;7.150;2023-03-13T05:42:49;10.90;99.90
20833;DHT22;56075;51.264;7.150;2023-03-13T05:45:20;10.80;99.90
20833;DHT22;56075;51.264;7.150;2023-03-13T05:48:14;10.70;99.90
20833;DHT22;56075;51.264;7.150;2023-03-13T05:51:04;12.80;99.90
20833;DHT22;56075;51.264;7.150;2023-03-13T05:53:51;11.00;99.90
20833;DHT22;56075;51.264;7.150;2023-03-13T05:56:43;11.10;99.90
20833;DHT22;56075;51.264;7.150;2023-03-13T05:59:26;10.90;99.90
20833;DHT22;56075;51.264;7.150;2023-03-13T06:02:16;11.00;99.90
20833;DHT22;56075;51.264;7.150;2023-03-13T06:04:50;11.00;99.90
20833;DHT22;56075;51.264;7.150;2023-03-13T06:07:21;11.20;99.90
20833;DHT22;56075;51.264;7.150;2023-03-13T06:09:53;11.30;99.90
20833;DHT22;56075;51.264;7.150;2023-03-13T06:12:24;11.20;99.90
20833;DHT22;56075;51.264;7.150;2023-03-13T06:14:55;11.20;99.90
20833;DHT22;56075;51.264;7.150;2023-03-13T06:17:33;12.10;99.90
20833;DHT22;56075;51.264;7.150;2023-03-13T06:20:04;11.20;99.90
20833;DHT22;56075;51.264;7.150;2023-03-13T06:22:35;11.20;99.90
20833;DHT22;56075;51.264;7.150;2023-03-13T06:25:07;11.20;99.90
20833;DHT22;56075;51.264;7.150;2023-03-13T06:27:40;11.40;99.90
20833;DHT22;56075;51.264;7.150;2023-03-13T06:30:11;11.30;99.90
20833;DHT22;56075;51.264;7.150;2023-03-13T06:32:42;11.40;99.90
20833;DHT22;56075;51.264;7.150;2023-03-13T06:35:14;11.10;99.90
20833;DHT22;56075;51.264;7.150;2023-03-13T06:37:45;11.40;99.90
20833;DHT22;56075;51.264;7.150;2023-03-13T06:40:16;11.40;99.90
20833;DHT22;56075;51.264;7.150;2023-03-13T06:42:47;11.40;99.90
20833;DHT22;56075;51.264;7.150;2023-03-13T06:45:18;11.30;99.90
20833;DHT22;56075;51.264;7.150;2023-03-13T06:47:49;11.30;99.90
20833;DHT22;56075;51.264;7.150;2023-03-13T06:50:22;11.50;99.90
20833;DHT22;56075;51.264;7.150;2023-03-13T06:52:53;11.40;99.90
20833;DHT22;56075;51.264;7.150;2023-03-13T06:55:25;12.70;99.90
20833;DHT22;56075;51.264;7.150;2023-03-13T06:57:56;11.70;99.90
20833;DHT22;56075;51.264;7.150;2023-03-13T07:00:27;11.70;99.90
20833;DHT22;56075;51.264;7.150;2023-03-13T07:02:58;11.60;99.90
20833;DHT22;56075;51.264;7.150;2023-03-13T07:05:29;11.70;99.90
20833;DHT22;56075;51.264;7.150;2023-03-13T07:08:00;11.70;99.90
20833;DHT22;56075;51.264;7.150;2023-03-13T07:10:31;12.00;99.90
20833;DHT22;56075;51.264;7.150;2023-03-13T07:13:03;11.80;99.90
20833;DHT22;56075;51.264;7.150;2023-03-13T07:15:34;12.00;99.90
20833;DHT22;56075;51.264;7.150;2023-03-13T07:18:05;11.80;99.90
20833;DHT22;56075;51.264;7.150;2023-03-13T07:20:36;12.80;99.90
20833;DHT22;56075;51.264;7.150;2023-03-13T07:23:07;12.00;99.90
20833;DHT22;56075;51.264;7.150;2023-03-13T07:25:38;12.10;99.90
20833;DHT22;56075;51.264;7.150;2023-03-13T07:28:09;13.90;99.90
20833;DHT22;56075;51.264;7.150;2023-03-13T07:30:40;12.40;99.90
20833;DHT22;56075;51.264;7.150;2023-03-13T07:33:11;12.50;99.90
20833;DHT22;56075;51.264;7.150;2023-03-13T07:35:52;12.60;99.90
20833;DHT22;56075;51.264;7.150;2023-03-13T07:38:23;12.60;99.90
20833;DHT22;56075;51.264;7.150;2023-03-13T07:40:56;12.70;99.90
20833;DHT22;56075;51.264;7.150;2023-03-13T07:43:27;13.90;99.90
20833;DHT22;56075;51.264;7.150;2023-03-13T07:46:01;12.80;99.90
20833;DHT22;56075;51.264;7.150;2023-03-13T07:48:35;12.80;99.90
20833;DHT22;56075;51.264;7.150;2023-03-13T07:51:19;13.00;99.90
20833;DHT22;56075;51.264;7.150;2023-03-13T07:53:51;13.00;99.90
20833;DHT22;56075;51.264;7.150;2023-03-13T07:56:22;13.00;99.90
20833;DHT22;56075;51.264;7.150;2023-03-13T07:58:54;13.00;99.90
20833;DHT22;56075;51.264;7.150;2023-03-13T08:01:26;13.70;99.90
20833;DHT22;56075;51.264;7.150;2023-03-13T08:03:57;13.00;99.90
20833;DHT22;56075;51.264;7.150;2023-03-13T08:06:32;13.10;99.90
20833;DHT22;56075;51.264;7.150;2023-03-13T08:09:05;14.70;99.90
20833;DHT22;56075;51.264;7.150;2023-03-13T08:11:38;13.00;99.90
20833;DHT22;56075;51.264;7.150;2023-03-13T08:14:11;13.60;99.90
20833;DHT22;56075;51.264;7.150;2023-03-13T08:16:42;13.10;99.90
20833;DHT22;56075;51.264;7.150;2023-03-13T08:19:13;13.20;99.90
20833;DHT22;56075;51.264;7.150;2023-03-13T08:21:44;13.40;99.90
20833;DHT22;56075;51.264;7.150;2023-03-13T08:24:15;13.20;99.90
20833;DHT22;56075;51.264;7.150;2023-03-13T08:26:46;14.00;99.90
20833;DHT22;56075;51.264;7.150;2023-03-13T08:29:17;13.30;99.90
20833;DHT22;56075;51.264;7.150;2023-03-13T08:31:49;13.00;99.90
20833;DHT22;56075;51.264;7.150;2023-03-13T08:34:22;13.20;99.90
20833;DHT22;56075;51.264;7.150;2023-03-13T08:36:53;13.10;99.90
20833;DHT22;56075;51.264;7.150;2023-03-13T08:39:27;13.20;99.90
20833;DHT22;56075;51.264;7.150;2023-03-13T08:41:58;13.40;99.90
20833;DHT22;56075;51.264;7.150;2023-03-13T08:44:29;13.30;99.90
20833;DHT22;56075;51.264;7.150;2023-03-13T08:47:00;13.30;99.90
20833;DHT22;56075;51.264;7.150;2023-03-13T08:49:32;13.20;99.90
20833;DHT22;56075;51.264;7.150;2023-03-13T08:52:04;13.50;99.90
20833;DHT22;56075;51.264;7.150;2023-03-13T08:54:35;13.40;99.90
20833;DHT22;56075;51.264;7.150;2023-03-13T08:57:06;13.40;99.90
20833;DHT22;56075;51.264;7.150;2023-03-13T08:59:38;15.30;99.90
20833;DHT22;56075;51.264;7.150;2023-03-13T09:02:09;14.90;99.90
20833;DHT22;56075;51.264;7.150;2023-03-13T09:04:40;13.60;99.90
20833;DHT22;56075;51.264;7.150;2023-03-13T09:07:11;13.60;99.90
20833;DHT22;56075;51.264;7.150;2023-03-13T09:09:43;13.50;99.90
20833;DHT22;56075;51.264;7.150;2023-03-13T09:12:14;15.60;99.90
20833;DHT22;56075;51.264;7.150;2023-03-13T09:14:45;13.20;99.90
20833;DHT22;56075;51.264;7.150;2023-03-13T09:17:17;13.50;99.90
20833;DHT22;56075;51.264;7.150;2023-03-13T09:19:48;14.90;99.90
20833;DHT22;56075;51.264;7.150;2023-03-13T09:22:19;13.60;99.90
20833;DHT22;56075;51.264;7.150;2023-03-13T09:24:50;13.50;99.90
20833;DHT22;56075;51.264;7.150;2023-03-13T09:27:22;15.60;99.90
20833;DHT22;56075;51.264;7.150;2023-03-13T09:29:53;13.70;99.90
20833;DHT22;56075;51.264;7.150;2023-03-13T09:32:24;13.60;99.90
20833;DHT22;56075;51.264;7.150;2023-03-13T09:34:55;13.70;99.90
20833;DHT22;56075;51.264;7.150;2023-03-13T09:37:27;13.70;99.90
20833;DHT22;56075;51.264;7.150;2023-03-13T09:39:58;13.60;99.90
20833;DHT22;56075;51.264;7.150;2023-03-13T09:42:43;13.50;99.90
20833;DHT22;56075;51.264;7.150;2023-03-13T09:45:33;13.60;99.90
20833;DHT22;56075;51.264;7.150;2023-03-13T09:48:23;13.90;99.90
20833;DHT22;56075;51.264;7.150;2023-03-13T09:51:22;13.90;99.90
20833;DHT22;56075;51.264;7.150;2023-03-13T09:54:08;13.90;99.90
20833;DHT22;56075;51.264;7.150;2023-03-13T09:56:46;14.00;99.90
20833;DHT22;56075;51.264;7.150;2023-03-13T09:59:52;14.90;99.90
20833;DHT22;56075;51.264;7.150;2023-03-13T10:05:18;13.90;99.90
20833;DHT22;56075;51.264;7.150;2023-03-13T10:07:59;14.00;99.90
20833;DHT22;56075;51.264;7.150;2023-03-13T10:16:22;13.90;99.90
20833;DHT22;56075;51.264;7.150;2023-03-13T10:18:58;13.80;99.90
20833;DHT22;56075;51.264;7.150;2023-03-13T10:21:35;14.10;99.90
20833;DHT22;56075;51.264;7.150;2023-03-13T10:26:38;14.30;99.90
20833;DHT22;56075;51.264;7.150;2023-03-13T10:29:26;16.30;99.90
20833;DHT22;56075;51.264;7.150;2023-03-13T10:32:03;16.00;99.90
20833;DHT22;56075;51.264;7.150;2023-03-13T10:34:56;14.70;99.90
20833;DHT22;56075;51.264;7.150;2023-03-13T10:37:42;14.70;99.90
20833;DHT22;56075;51.264;7.150;2023-03-13T10:40:20;14.70;99.90
20833;DHT22;56075;51.264;7.150;2023-03-13T10:43:13;15.10;99.90
20833;DHT22;56075;51.264;7.150;2023-03-13T10:45:46;15.00;99.90
20833;DHT22;56075;51.264;7.150;2023-03-13T10:48:19;14.90;99.90
20833;DHT22;56075;51.264;7.150;2023-03-13T10:50:55;15.00;99.90
20833;DHT22;56075;51.264;7.150;2023-03-13T10:56:15;15.10;99.90
20833;DHT22;56075;51.264;7.150;2023-03-13T10:58:51;16.40;99.90
20833;DHT22;56075;51.264;7.150;2023-03-13T11:01:26;15.10;99.90
20833;DHT22;56075;51.264;7.150;2023-03-13T11:03:58;15.00;99.90
20833;DHT22;56075;51.264;7.150;2023-03-13T11:06:51;16.20;99.90
20833;DHT22;56075;51.264;7.150;2023-03-13T11:09:22;15.20;99.90
20833;DHT22;56075;51.264;7.150;2023-03-13T11:12:02;16.40;99.90
20833;DHT22;56075;51.264;7.150;2023-03-13T11:14:35;16.20;99.90
20833;DHT22;56075;51.264;7.150;2023-03-13T11:17:33;16.00;99.90
20833;DHT22;56075;51.264;7.150;2023-03-13T11:20:23;15.50;99.90
20833;DHT22;56075;51.264;7.150;2023-03-13T11:23:27;15.60;99.90
20833;DHT22;56075;51.264;7.150;2023-03-13T11:28:57;16.90;99.90
20833;DHT22;56075;51.264;7.150;2023-03-13T11:31:43;15.50;99.90
20833;DHT22;56075;51.264;7.150;2023-03-13T11:34:21;17.40;99.90
20833;DHT22;56075;51.264;7.150;2023-03-13T11:37:07;16.60;99.90
20833;DHT22;56075;51.264;7.150;2023-03-13T11:42:36;15.70;99.90
20833;DHT22;56075;51.264;7.150;2023-03-13T11:48:21;15.50;99.90
20833;DHT22;56075;51.264;7.150;2023-03-13T11:51:07;17.30;99.90
20833;DHT22;56075;51.264;7.150;2023-03-13T11:56:54;16.30;99.90
20833;DHT22;56075;51.264;7.150;2023-03-13T12:02:49;15.50;99.90
20833;DHT22;56075;51.264;7.150;2023-03-13T12:05:22;15.70;99.90
20833;DHT22;56075;51.264;7.150;2023-03-13T12:08:08;15.50;99.90
20833;DHT22;56075;51.264;7.150;2023-03-13T12:10:58;15.60;99.90
20833;DHT22;56075;51.264;7.150;2023-03-13T12:13:35;15.70;99.90
20833;DHT22;56075;51.264;7.150;2023-03-13T12:16:18;15.70;99.90
20833;DHT22;56075;51.264;7.150;2023-03-13T12:18:52;17.60;99.90
20833;DHT22;56075;51.264;7.150;2023-03-13T12:21:35;17.40;99.90
20833;DHT22;56075;51.264;7.150;2023-03-13T12:24:18;16.20;99.90
20833;DHT22;56075;51.264;7.150;2023-03-13T12:27:01;16.30;99.90
20833;DHT22;56075;51.264;7.150;2023-03-13T12:32:57;16.30;99.90
20833;DHT22;56075;51.264;7.150;2023-03-13T12:35:30;16.10;99.90
20833;DHT22;56075;51.264;7.150;2023-03-13T12:38:12;17.00;99.90
20833;DHT22;56075;51.264;7.150;2023-03-13T12:43:44;16.00;99.90
20833;DHT22;56075;51.264;7.150;2023-03-13T12:49:08;16.90;99.90
20833;DHT22;56075;51.264;7.150;2023-03-13T12:54:40;15.90;99.90
20833;DHT22;56075;51.264;7.150;2023-03-13T13:00:15;16.10;99.90
20833;DHT22;56075;51.264;7.150;2023-03-13T13:03:09;15.90;99.90
20833;DHT22;56075;51.264;7.150;2023-03-13T13:08:35;16.20;99.90
20833;DHT22;56075;51.264;7.150;2023-03-13T13:20:26;16.10;99.90
20833;DHT22;56075;51.264;7.150;2023-03-13T13:25:52;17.40;99.90
20833;DHT22;56075;51.264;7.150;2023-03-13T13:28:31;16.40;99.90
20833;DHT22;56075;51.264;7.150;2023-03-13T13:39:55;17.10;99.90
20833;DHT22;56075;51.264;7.150;2023-03-13T13:42:50;18.60;99.90
20833;DHT22;56075;51.264;7.150;2023-03-13T13:45:35;16.30;99.90
20833;DHT22;56075;51.264;7.150;2023-03-13T13:56:45;18.10;99.90
20833;DHT22;56075;51.264;7.150;2023-03-13T14:04:54;16.40;99.90
20833;DHT22;56075;51.264;7.150;2023-03-13T14:07:41;16.40;99.90
20833;DHT22;56075;51.264;7.150;2023-03-13T14:10:36;16.40;99.90
20833;DHT22;56075;51.264;7.150;2023-03-13T14:13:17;17.30;99.90
20833;DHT22;56075;51.264;7.150;2023-03-13T14:15:51;16.40;99.90
20833;DHT22;56075;51.264;7.150;2023-03-13T14:18:26;16.30;99.90
20833;DHT22;56075;51.264;7.150;2023-03-13T14:21:03;17.50;99.90
20833;DHT22;56075;51.264;7.150;2023-03-13T14:23:45;16.10;99.90
20833;DHT22;56075;51.264;7.150;2023-03-13T14:26:22;16.50;99.90
20833;DHT22;56075;51.264;7.150;2023-03-13T14:28:56;16.20;99.90
20833;DHT22;56075;51.264;7.150;2023-03-13T14:31:30;16.10;99.90
20833;DHT22;56075;51.264;7.150;2023-03-13T14:34:07;16.30;99.90
20833;DHT22;56075;51.264;7.150;2023-03-13T14:42:12;16.00;99.90
20833;DHT22;56075;51.264;7.150;2023-03-13T14:44:46;16.20;99.90
20833;DHT22;56075;51.264;7.150;2023-03-13T14:47:24;17.30;99.90
20833;DHT22;56075;51.264;7.150;2023-03-13T14:50:03;16.10;99.90
20833;DHT22;56075;51.264;7.150;2023-03-13T14:52:49;16.20;99.90
20833;DHT22;56075;51.264;7.150;2023-03-13T15:00:52;17.20;99.90
20833;DHT22;56075;51.264;7.150;2023-03-13T15:03:29;15.80;99.90
20833;DHT22;56075;51.264;7.150;2023-03-13T15:06:05;15.90;99.90
20833;DHT22;56075;51.264;7.150;2023-03-13T15:08:45;16.10;99.90
20833;DHT22;56075;51.264;7.150;2023-03-13T15:11:21;16.00;99.90
20833;DHT22;56075;51.264;7.150;2023-03-13T15:13:55;16.10;99.90
20833;DHT22;56075;51.264;7.150;2023-03-13T15:16:27;17.70;99.90
20833;DHT22;56075;51.264;7.150;2023-03-13T15:18:58;16.10;99.90
20833;DHT22;56075;51.264;7.150;2023-03-13T15:21:30;15.70;99.90
20833;DHT22;56075;51.264;7.150;2023-03-13T15:24:12;17.70;99.90
20833;DHT22;56075;51.264;7.150;2023-03-13T15:26:44;16.00;99.90
20833;DHT22;56075;51.264;7.150;2023-03-13T15:29:15;16.10;99.90
20833;DHT22;56075;51.264;7.150;2023-03-13T15:31:48;17.90;99.90
20833;DHT22;56075;51.264;7.150;2023-03-13T15:34:19;15.90;99.90
20833;DHT22;56075;51.264;7.150;2023-03-13T15:36:55;17.90;99.90
20833;DHT22;56075;51.264;7.150;2023-03-13T15:39:26;17.10;99.90
20833;DHT22;56075;51.264;7.150;2023-03-13T15:41:57;15.70;99.90
20833;DHT22;56075;51.264;7.150;2023-03-13T15:44:28;17.40;99.90
20833;DHT22;56075;51.264;7.150;2023-03-13T15:46:59;15.70;99.90
20833;DHT22;56075;51.264;7.150;2023-03-13T15:49:30;15.60;99.90
20833;DHT22;56075;51.264;7.150;2023-03-13T15:52:02;15.60;99.90
20833;DHT22;56075;51.264;7.150;2023-03-13T15:54:33;15.70;99.90
20833;DHT22;56075;51.264;7.150;2023-03-13T15:57:04;15.50;99.90
20833;DHT22;56075;51.264;7.150;2023-03-13T15:59:35;17.60;99.90
20833;DHT22;56075;51.264;7.150;2023-03-13T16:02:14;17.40;99.90
20833;DHT22;56075;51.264;7.150;2023-03-13T16:04:46;15.80;99.90
20833;DHT22;56075;51.264;7.150;2023-03-13T16:07:19;17.80;99.90
20833;DHT22;56075;51.264;7.150;2023-03-13T16:09:51;17.70;99.90
20833;DHT22;56075;51.264;7.150;2023-03-13T16:12:22;15.70;99.90
20833;DHT22;56075;51.264;7.150;2023-03-13T16:14:53;16.50;99.90
20833;DHT22;56075;51.264;7.150;2023-03-13T16:17:24;15.60;99.90
20833;DHT22;56075;51.264;7.150;2023-03-13T16:19:58;15.60;99.90
20833;DHT22;56075;51.264;7.150;2023-03-13T16:22:29;17.20;99.90
20833;DHT22;56075;51.264;7.150;2023-03-13T16:25:00;16.60;99.90
20833;DHT22;56075;51.264;7.150;2023-03-13T16:27:31;17.10;99.90
20833;DHT22;56075;51.264;7.150;2023-03-13T16:30:02;16.50;99.90
20833;DHT22;56075;51.264;7.150;2023-03-13T16:32:36;15.60;99.90
20833;DHT22;56075;51.264;7.150;2023-03-13T16:35:07;17.20;99.90
20833;DHT22;56075;51.264;7.150;2023-03-13T16:37:39;15.70;99.90
20833;DHT22;56075;51.264;7.150;2023-03-13T16:40:20;18.20;99.90
20833;DHT22;56075;51.264;7.150;2023-03-13T16:42:52;15.60;99.90
20833;DHT22;56075;51.264;7.150;2023-03-13T16:45:23;16.60;99.90
20833;DHT22;56075;51.264;7.150;2023-03-13T16:47:54;15.40;99.90
20833;DHT22;56075;51.264;7.150;2023-03-13T16:50:36;16.40;99.90
20833;DHT22;56075;51.264;7.150;2023-03-13T16:53:07;15.50;99.90
20833;DHT22;56075;51.264;7.150;2023-03-13T16:55:38;15.40;99.90
20833;DHT22;56075;51.264;7.150;2023-03-13T16:58:11;15.40;99.90
20833;DHT22;56075;51.264;7.150;2023-03-13T17:00:42;15.40;99.90
20833;DHT22;56075;51.264;7.150;2023-03-13T17:03:14;15.60;99.90
20833;DHT22;56075;51.264;7.150;2023-03-13T17:05:46;17.10;99.90
20833;DHT22;56075;51.264;7.150;2023-03-13T17:08:17;15.20;99.90
20833;DHT22;56075;51.264;7.150;2023-03-13T17:10:48;15.20;99.90
20833;DHT22;56075;51.264;7.150;2023-03-13T17:13:19;16.20;99.90
20833;DHT22;56075;51.264;7.150;2023-03-13T17:15:53;15.20;99.90
20833;DHT22;56075;51.264;7.150;2023-03-13T17:18:24;16.20;99.90
20833;DHT22;56075;51.264;7.150;2023-03-13T17:20:55;15.00;99.90
20833;DHT22;56075;51.264;7.150;2023-03-13T17:23:26;15.00;99.90
20833;DHT22;56075;51.264;7.150;2023-03-13T17:25:58;14.80;99.90
20833;DHT22;56075;51.264;7.150;2023-03-13T17:28:29;15.00;99.90
20833;DHT22;56075;51.264;7.150;2023-03-13T17:31:00;15.50;99.90
20833;DHT22;56075;51.264;7.150;2023-03-13T17:33:34;16.00;99.90
20833;DHT22;56075;51.264;7.150;2023-03-13T17:36:27;14.90;99.90
20833;DHT22;56075;51.264;7.150;2023-03-13T17:39:00;14.80;99.90
20833;DHT22;56075;51.264;7.150;2023-03-13T17:41:33;14.60;99.90
20833;DHT22;56075;51.264;7.150;2023-03-13T17:44:04;14.60;99.90
20833;DHT22;56075;51.264;7.150;2023-03-13T17:46:42;14.70;99.90
20833;DHT22;56075;51.264;7.150;2023-03-13T17:49:16;14.70;99.90
20833;DHT22;56075;51.264;7.150;2023-03-13T17:51:47;16.10;99.90
20833;DHT22;56075;51.264;7.150;2023-03-13T17:54:19;15.80;99.90
20833;DHT22;56075;51.264;7.150;2023-03-13T17:56:51;14.40;99.90
20833;DHT22;56075;51.264;7.150;2023-03-13T17:59:23;14.70;99.90
20833;DHT22;56075;51.264;7.150;2023-03-13T18:01:54;16.10;99.90
20833;DHT22;56075;51.264;7.150;2023-03-13T18:04:25;14.60;99.90
20833;DHT22;56075;51.264;7.150;2023-03-13T18:06:57;14.50;99.90
20833;DHT22;56075;51.264;7.150;2023-03-13T18:09:28;14.30;99.90